| time (UTC) | temp C | wind direction | speed KPH | gust KPH | rain 1hr cm | rain 24hr cm | rain mn cm | humidity % | barometer mb |
| 20260905235325 | 13 | 260 | 8.0 | 8.0 | 0.00 | 0.00 | 0.00 | 81 | 1015.2 |
| 20260905234322 | 13 | 198 | 1.6 | 1.6 | 0.00 | 0.00 | 0.00 | 81 | 1014.8 |
| 20260905233313 | 13 | 257 | 0.0 | 0.0 | 0.00 | 0.00 | 0.00 | 81 | 1014.7 |
| 20260905231247 | 13 | 234 | 3.2 | 3.2 | 0.00 | 0.00 | 0.00 | 80 | 1014.8 |
| 20260905230240 | 13 | 274 | 9.7 | 9.7 | 0.00 | 0.00 | 0.00 | 80 | 1014.8 |
| 20260905225232 | 13 | 245 | 8.0 | 8.0 | 0.00 | 0.00 | 0.00 | 81 | 1014.8 |
| 20260905223210 | 13 | 89 | 3.2 | 3.2 | 0.00 | 0.00 | 0.00 | 83 | 1014.5 |
| 20260905222206 | 13 | 261 | 0.0 | 0.0 | 0.00 | 0.00 | 0.00 | 82 | 1014.6 |
| 20260905221201 | 13 | 250 | 4.8 | 4.8 | 0.00 | 0.00 | 0.00 | 82 | 1014.5 |
| 20260905215129 | 13 | 246 | 1.6 | 1.6 | 0.00 | 0.61 | 0.61 | 83 | 1014.1 |
| 20260905214124 | 13 | 210 | 4.8 | 4.8 | 0.00 | 0.61 | 0.61 | 84 | 1014.4 |
| 20260905213118 | 13 | 253 | 3.2 | 3.2 | 0.00 | 0.61 | 0.61 | 86 | 1014.3 |
| 20260905211057 | 13 | 144 | 1.6 | 1.6 | 0.00 | 0.61 | 0.61 | 88 | 1014.1 |
| 20260905210052 | 13 | 78 | 3.2 | 3.2 | 0.00 | 0.61 | 0.61 | 88 | 1013.7 |
| 20260905205052 | 13 | 99 | 1.6 | 1.6 | 0.00 | 0.61 | 0.61 | 88 | 1013.6 |
| 20260905203027 | 13 | 147 | 4.8 | 4.8 | 0.00 | 0.61 | 0.61 | 89 | 1013.8 |
| 20260905202022 | 13 | 239 | 3.2 | 3.2 | 0.00 | 0.61 | 0.61 | 89 | 1013.6 |
| 20260905201017 | 13 | 260 | 8.0 | 8.0 | 0.00 | 0.61 | 0.61 | 88 | 1013.6 |
| 20260905200007 | 13 | 99 | 3.2 | 3.2 | 0.00 | 0.61 | 0.61 | 88 | 1013.5 |
| 20260905193939 | 13 | 227 | 1.6 | 1.6 | 0.00 | 0.61 | 0.61 | 90 | 1013.4 |
| 20260905192929 | 13 | 271 | 4.8 | 4.8 | 0.00 | 0.61 | 0.61 | 90 | 1013.2 |
| 20260905191922 | 13 | 150 | 3.2 | 3.2 | 0.00 | 0.61 | 0.61 | 90 | 1013.1 |
| 20260905185836 | 13 | 256 | 6.4 | 6.4 | 0.00 | 0.61 | 0.61 | 90 | 1013.0 |
| 20260905184822 | 13 | 210 | 1.6 | 1.6 | 0.00 | 0.61 | 0.61 | 89 | 1012.6 |
| 20260905183812 | 13 | 228 | 6.4 | 6.4 | 0.00 | 0.61 | 0.61 | 88 | 1012.9 |
| 20260905181753 | 13 | 102 | 4.8 | 4.8 | 0.08 | 0.61 | 0.61 | 87 | 1012.6 |
| 20260905180747 | 13 | 256 | 4.8 | 4.8 | 0.10 | 0.61 | 0.61 | 88 | 1012.6 |
| 20260905175734 | 13 | 258 | 4.8 | 6.4 | 0.13 | 0.61 | 0.61 | 87 | 1012.4 |
| 20260905173557 | 13 | 228 | 3.2 | 3.2 | 0.28 | 0.61 | 0.61 | 88 | 1012.3 |
| 20260905172549 | 13 | 263 | 3.2 | 3.2 | 0.41 | 0.61 | 0.61 | 88 | 1012.2 |
| 20260905171545 | 13 | 275 | 3.2 | 3.2 | 0.46 | 0.61 | 0.61 | 88 | 1012.2 |
| 20260905165520 | 13 | 288 | 4.8 | 4.8 | 0.43 | 0.51 | 0.51 | 88 | 1012.3 |
| 20260905164510 | 13 | 244 | 6.4 | 6.4 | 0.43 | 0.51 | 0.51 | 88 | 1011.9 |
| 20260905163502 | 13 | 23 | 3.2 | 3.2 | 0.38 | 0.46 | 0.46 | 88 | 1012.2 |
| 20260905162453 | 13 | 323 | 3.2 | 3.2 | 0.30 | 0.38 | 0.38 | 88 | 1012.2 |
| 20260905160425 | 15 | 43 | 14.5 | 16.1 | 0.10 | 0.18 | 0.18 | 78 | 1011.7 |
| 20260905155417 | 17 | 252 | 9.7 | 12.9 | 0.05 | 0.13 | 0.13 | 68 | 1011.3 |
| 20260905154411 | 18 | 259 | 17.7 | 24.1 | 0.00 | 0.08 | 0.08 | 58 | 1010.4 |
| 20260905152330 | 20 | 276 | 6.4 | 6.4 | 0.00 | 0.08 | 0.08 | 54 | 1009.6 |
| 20260905151322 | 19 | 258 | 0.0 | 0.0 | 0.00 | 0.08 | 0.08 | 59 | 1009.7 |
| 20260905150314 | 20 | 251 | 0.0 | 0.0 | 0.03 | 0.08 | 0.08 | 57 | 1009.8 |
| 20260905144254 | 20 | 265 | 0.0 | 0.0 | 0.08 | 0.08 | 0.08 | 56 | 1009.5 |
| 20260905143248 | 20 | 138 | 12.9 | 14.5 | 0.08 | 0.08 | 0.08 | 55 | 1009.6 |
| 20260905142227 | 20 | 252 | 4.8 | 4.8 | 0.08 | 0.08 | 0.08 | 59 | 1009.4 |
| 20260905140148 | 17 | 16 | 0.0 | 0.0 | 0.08 | 0.08 | 0.08 | 75 | 1010.2 |
| 20260905135138 | 16 | 293 | 3.2 | 3.2 | 0.05 | 0.05 | 0.05 | 79 | 1010.3 |
| 20260905134133 | 18 | 318 | 12.9 | 14.5 | 0.00 | 0.00 | 0.00 | 65 | 1010.3 |
| 20260905132108 | 19 | 263 | 8.0 | 9.7 | 0.00 | 0.00 | 0.00 | 55 | 1009.4 |
| 20260905131101 | 20 | 258 | 9.7 | 9.7 | 0.00 | 0.00 | 0.00 | 53 | 1009.7 |
| 20260905130050 | 20 | 259 | 3.2 | 3.2 | 0.00 | 0.00 | 0.00 | 51 | 1009.6 |
| 20260905124022 | 20 | 105 | 3.2 | 3.2 | 0.00 | 0.00 | 0.00 | 52 | 1009.6 |
| 20260905123018 | 19 | 276 | 9.7 | 12.9 | 0.00 | 0.00 | 0.00 | 53 | 1009.5 |
| 20260905122012 | 20 | 228 | 4.8 | 6.4 | 0.00 | 0.00 | 0.00 | 51 | 1009.7 |
| 20260905115945 | 21 | 50 | 8.0 | 8.0 | 0.00 | 0.00 | 0.00 | 47 | 1009.5 |
| 20260905114938 | 21 | 264 | 6.4 | 8.0 | 0.00 | 0.00 | 0.00 | 47 | 1009.5 |
| 20260905113929 | 20 | 236 | 8.0 | 8.0 | 0.00 | 0.00 | 0.00 | 50 | 1009.7 |
| 20260905111903 | 20 | 106 | 4.8 | 6.4 | 0.00 | 0.00 | 0.00 | 50 | 1009.9 |
| 20260905110900 | 20 | 204 | 14.5 | 16.1 | 0.00 | 0.00 | 0.00 | 51 | 1009.9 |
| 20260905105854 | 20 | 234 | 3.2 | 3.2 | 0.00 | 0.00 | 0.00 | 51 | 1010.0 |
| 20260905103820 | 20 | 124 | 4.8 | 6.4 | 0.00 | 0.00 | 0.00 | 56 | 1009.9 |
| 20260905102801 | 18 | 261 | 8.0 | 8.0 | 0.00 | 0.00 | 0.00 | 59 | 1010.2 |
| 20260905101738 | 18 | 256 | 3.2 | 3.2 | 0.00 | 0.00 | 0.00 | 61 | 1010.0 |
| 20260905095627 | 19 | 108 | 1.6 | 1.6 | 0.00 | 0.00 | 0.00 | 59 | 1010.1 |
| 20260905094546 | 18 | 224 | 8.0 | 9.7 | 0.00 | 0.00 | 0.00 | 58 | 1010.1 |
| 20260905093535 | 18 | 120 | 3.2 | 3.2 | 0.00 | 0.00 | 0.00 | 60 | 1010.2 |
| 20260905091312 | 18 | 246 | 6.4 | 6.4 | 0.00 | 0.00 | 0.00 | 64 | 1010.1 |
| 20260905090157 | 18 | 143 | 9.7 | 9.7 | 0.00 | 0.00 | 0.00 | 64 | 1009.8 |
| 20260905085153 | 18 | 298 | 6.4 | 8.0 | 0.00 | 0.00 | 0.00 | 65 | 1010.0 |
| 20260905083129 | 18 | 281 | 6.4 | 6.4 | 0.00 | 0.00 | 0.00 | 65 | 1009.9 |
| 20260905082122 | 17 | 42 | 3.2 | 3.2 | 0.00 | 0.00 | 0.00 | 68 | 1009.6 |
| 20260905081120 | 17 | 6 | 1.6 | 1.6 | 0.00 | 0.00 | 0.00 | 70 | 1010.0 |
| 20260905075054 | 17 | 252 | 4.8 | 6.4 | 0.00 | 0.00 | 0.00 | 72 | 1009.7 |
| 20260905074048 | 17 | 252 | 8.0 | 8.0 | 0.00 | 0.00 | 0.00 | 71 | 1009.4 |
| 20260905073042 | 16 | 251 | 9.7 | 11.3 | 0.00 | 0.00 | 0.00 | 73 | 1009.5 |
| 20260905071011 | 16 | 251 | 9.7 | 12.9 | 0.00 | 0.00 | 0.00 | 74 | 1008.9 |
| 20260905070003 | 16 | 277 | 3.2 | 3.2 | 0.00 | 0.00 | 0.00 | 76 | 1009.3 |
| 20260905064955 | 16 | 96 | 9.7 | 9.7 | 0.00 | 0.00 | 0.00 | 77 | 1008.7 |
| 20260905062915 | 15 | 170 | 1.6 | 1.6 | 0.00 | 0.00 | 0.00 | 81 | 1009.1 |
| 20260905061906 | 15 | 244 | 4.8 | 4.8 | 0.00 | 0.00 | 0.00 | 82 | 1009.0 |
| 20260905060857 | 15 | 262 | 1.6 | 1.6 | 0.00 | 0.00 | 0.00 | 82 | 1008.9 |
| 20260905054831 | 15 | 192 | 0.0 | 0.0 | 0.00 | 0.00 | 0.00 | 84 | 1008.8 |
| 20260905053823 | 15 | 228 | 0.0 | 0.0 | 0.00 | 0.00 | 0.00 | 84 | 1008.6 |
| 20260905052814 | 15 | 132 | 6.4 | 6.4 | 0.00 | 0.00 | 0.00 | 84 | 1008.6 |
| 20260905050744 | 15 | 138 | 4.8 | 6.4 | 0.00 | 0.00 | 0.00 | 86 | 1007.9 |
| 20260905045735 | 15 | 204 | 3.2 | 3.2 | 0.00 | 0.00 | 0.00 | 86 | 1007.7 |
| 20260905044725 | 14 | 210 | 6.4 | 8.0 | 0.00 | 0.00 | 0.00 | 87 | 1008.0 |
| 20260905042656 | 15 | 265 | 6.4 | 6.4 | 0.00 | 0.00 | 0.00 | 87 | 1007.8 |
| 20260905041649 | 15 | 226 | 3.2 | 3.2 | 0.00 | 0.00 | 0.00 | 87 | 1007.7 |
| 20260905040643 | 15 | 318 | 3.2 | 3.2 | 0.00 | 0.00 | 0.00 | 87 | 1007.2 |
| 20260905034612 | 15 | 302 | 1.6 | 1.6 | 0.00 | 0.00 | 0.00 | 86 | 1007.0 |
| 20260905033559 | 15 | 272 | 0.0 | 0.0 | 0.00 | 0.00 | 0.00 | 85 | 1007.2 |
| 20260905032555 | 15 | 280 | 3.2 | 3.2 | 0.00 | 0.00 | 0.00 | 85 | 1007.1 |
| 20260905030523 | 15 | 310 | 4.8 | 4.8 | 0.00 | 0.00 | 0.00 | 84 | 1006.6 |
| 20260905025513 | 15 | 307 | 0.0 | 0.0 | 0.00 | 0.00 | 0.00 | 84 | 1006.4 |
| 20260905024503 | 15 | 120 | 3.2 | 3.2 | 0.00 | 0.00 | 0.00 | 84 | 1006.6 |
| 20260905022436 | 15 | 224 | 3.2 | 3.2 | 0.00 | 0.00 | 0.00 | 84 | 1006.5 |
| 20260905021430 | 16 | 275 | 3.2 | 3.2 | 0.00 | 0.00 | 0.00 | 83 | 1006.4 |
| 20260905020419 | 16 | 288 | 3.2 | 3.2 | 0.00 | 0.00 | 0.00 | 83 | 1006.4 |
| 20260905014350 | 16 | 270 | 4.8 | 6.4 | 0.00 | 0.00 | 0.00 | 82 | 1005.7 |
| 20260905013344 | 16 | 274 | 4.8 | 4.8 | 0.00 | 0.00 | 0.00 | 83 | 1006.1 |
| 20260905012331 | 16 | 280 | 6.4 | 6.4 | 0.00 | 0.00 | 0.00 | 83 | 1005.8 |
| 20260905010256 | 16 | 246 | 6.4 | 6.4 | 0.00 | 0.00 | 0.00 | 84 | 1005.9 |
| 20260905005254 | 16 | 269 | 8.0 | 8.0 | 0.00 | 0.00 | 0.00 | 84 | 1005.6 |
| 20260905004243 | 16 | 282 | 4.8 | 4.8 | 0.00 | 0.00 | 0.00 | 84 | 1005.7 |
| 20260905002159 | 16 | 67 | 3.2 | 3.2 | 0.00 | 0.00 | 0.00 | 86 | 1005.4 |
| 20260905001153 | 16 | 105 | 4.8 | 4.8 | 0.00 | 0.00 | 0.00 | 86 | 1005.9 |
| 20260905000147 | 16 | 223 | 6.4 | 6.4 | 0.00 | 0.00 | 0.00 | 88 | 1005.5 |